Ulsteinvik  Ulsteinvik


Beaufortskalaen  Beaufortskalaen


Clouds and precipitation  Clouds and precipitation


Nedbørsradar more information rain snow radar


Ingen spesiell oppmerksomhet om været er nødvendig.    Det er ingen advarsler

Nære METAR rapporter

   
ENAL - Ålesund
oppdatert: 04-07-2020 05:50
Klart  
Klart  
   Vind: SØ 4.1 m/s
Vind: SØ 4.1 m/s
Temperatur: 9°C
Wind Chill: 7°C
Duggpunkt: 6°C
Fuktighet: 82%
Barometer: 1004 hPa
Skyer: Klart
Sikt: More than 10 km
Skydetaljer: Klart
ENAL 040350Z AUTO 14008KT 9999 NCD 09/06 Q1004
ENOV - Ørsta
oppdatert: 04-07-2020 05:50
få skyer  
få skyer  
   Vind: varierer 0.5 m/s
Vind: varierer 0.5 m/s
Temperatur: 4°C
Duggpunkt: 3°C
Fuktighet: 93%
Barometer: 1003 hPa
Skyer: få skyer
Sikt: More than 10 km
Skydetaljer: få skyer 243.8 m
ENOV 040350Z VRB01KT 9999 FEW008 04/03 Q1003 RMK WIND 2175FT 09008KT
ENML - Tafjorden
oppdatert: 04-07-2020 05:50
Klart  
Klart  
   Vind: NNØ 3.1 m/s
Vind: NNØ 3.1 m/s
Temperatur: 7°C
Wind Chill: 5°C
Duggpunkt: 4°C
Fuktighet: 81%
Barometer: 1004 hPa
Skyer: Klart
Sikt: 10 km
Skydetaljer: Klart
ENML 040350Z AUTO 03006KT 9999NDV NCD 07/04 Q1004
ENML - Molde
oppdatert: 04-07-2020 05:50
Klart  
Klart  
   Vind: NNØ 3.1 m/s
Vind: NNØ 3.1 m/s
Temperatur: 7°C
Wind Chill: 5°C
Duggpunkt: 4°C
Fuktighet: 81%
Barometer: 1004 hPa
Skyer: Klart
Sikt: 10 km
Skydetaljer: Klart
ENML 040350Z AUTO 03006KT 9999NDV NCD 07/04 Q1004
ENFL - Florø
oppdatert: 04-07-2020 05:50
Klart  
Klart  
   Vind: ØNØ 2.1 m/s
Vind: ØNØ 2.1 m/s
Temperatur: 9°C
Wind Chill: 8°C
Duggpunkt: 5°C
Fuktighet: 76%
Barometer: 1003 hPa
Skyer: Klart
Sikt: 10 km
Skydetaljer: Klart
ENFL 040350Z AUTO 06004KT 9999NDV NCD 09/05 Q1003
ENVA - Trondheim
oppdatert: 04-07-2020 05:50
yr, Overskyet  
yr, Overskyet  
   Vind: VNV 7.2 m/s
Vind: VNV 7.2 m/s
Temperatur: 9°C
Wind Chill: 6°C
Duggpunkt: 7°C
Fuktighet: 87%
Barometer: 1003 hPa
Skyer: Overskyet
Sikt: More than 10 km
Skydetaljer: For det meste skyet 487.7 m,
For det meste skyet 670.6 m,
Overskyet 1036.3 m
ENVA 040350Z AUTO 29014KT 9999 DZ BKN016/// BKN022/// OVC034/// 09/07 Q1003 RERA RMK WIND 670FT 27015KT
ENBR - Bergen
oppdatert: 04-07-2020 05:50
Klart  
Klart  
   Vind: NØ 2.1 m/s
Vind: NØ 2.1 m/s
Temperatur: 7°C
Wind Chill: 6°C
Duggpunkt: 6°C
Fuktighet: 93%
Barometer: 1001 hPa
Sikt: More than 10 km
Skydetaljer: Klart
ENBR 040350Z 05004KT CAVOK 07/06 Q1001 RMK WIND 1200FT 02009KT
ENZV - Stavanger
oppdatert: 04-07-2020 05:50
For det meste skyet  
For det meste skyet  
   Vind: Øst 1 m/s
Vind: Øst 1 m/s
Temperatur: 12°C
Duggpunkt: 11°C
Fuktighet: 94%
Barometer: 1000 hPa
Skyer: For det meste skyet
Sikt: More than 10 km
Skydetaljer: For det meste skyet 1371.6 m
ENZV 040350Z 08002KT 9999 BKN045 12/11 Q1000
ENGM - Oslo
oppdatert: 04-07-2020 05:50
For det meste skyet  
For det meste skyet  
   Vind: Nord 2.6 m/s
Vind: Nord 2.6 m/s
Temperatur: 9°C
Wind Chill: 8°C
Duggpunkt: 8°C
Fuktighet: 94%
Barometer: 1002 hPa
Skyer: For det meste skyet
Sikt: More than 10 km
Skydetaljer: få skyer 152.4 m,
Delvis Skyet 640.1 m,
For det meste skyet 1645.9 m
ENGM 040350Z 36005KT 9999 FEW005 SCT021 BKN054 09/08 Q1002 NOSIG
ESSA - Stockholm
oppdatert: 04-07-2020 05:50
Lett regn, For det meste skyet  
Lett regn, For det meste skyet  
   Vind: Sør 4.6 m/s
Vind: Sør 4.6 m/s
Temperatur: 11°C
Duggpunkt: 9°C
Fuktighet: 88%
Barometer: 1004 hPa
Skyer: For det meste skyet
Sikt: 8 km
Skydetaljer: få skyer 883.9 m,
For det meste skyet 1798.3 m
ESSA 040350Z 18009KT 8000 -RA FEW029 BKN059 11/09 Q1004 BECMG RA
EKCH - København
oppdatert: 04-07-2020 05:50
yr, Nedbør, Overskyet  
yr, Nedbør, Overskyet  
   Vind: SV 9.3 m/s<br />Gust to 9.3 m/s
Vind: SV 9.3 m/s
Gust to 9.3 m/s
Temperatur: 15°C
Duggpunkt: 14°C
Fuktighet: 94%
Barometer: 1008 hPa
Skyer: Overskyet
Sikt: 8 km
Skydetaljer: Overskyet 457.2 m
EKCH 040350Z 22018G29KT 8000 DZRA OVC015 15/14 Q1008 TEMPO 4000 BKN012
ENHV - Nordkapp
oppdatert: 03-07-2020 21:50
Ikkje oppdatert
Klart  
Klart  
   Vind: NØ 5.1 m/s
Vind: NØ 5.1 m/s
Temperatur: 9°C
Wind Chill: 6°C
Duggpunkt: 5°C
Fuktighet: 76%
Barometer: 1006 hPa
Sikt: More than 10 km
Skydetaljer: Klart
ENHV 031950Z 05010KT CAVOK 09/05 Q1006
ENSB - Svalbard
oppdatert: 04-07-2020 04:50
Lett regn, For det meste skyet  
Lett regn, For det meste skyet  
   Vind: SØ 6.7 m/s
Vind: SØ 6.7 m/s
Temperatur: 5°C
Wind Chill: 1°C
Duggpunkt: 1°C
Fuktighet: 76%
Barometer: 1003 hPa
Skyer: For det meste skyet
Sikt: More than 10 km
Skydetaljer: få skyer 243.8 m,
For det meste skyet 670.6 m
ENSB 040250Z 14013KT 9999 -RA FEW008 BKN022 05/01 Q1003 RMK WIND 1400FT 14010KT
NZSP - Sørpolen
oppdatert: 04-07-2020 01:50
Ikkje oppdatert
Blowing, Snø, få skyer  
Blowing, Snø, få skyer  
   Vind: Øst 4.6 m/s
Vind: Øst 4.6 m/s
Temperatur: -61°C
Wind Chill: -81°C
Barometer: 955 hPa
Skyer: få skyer
Sikt: 1.6 km
Skydetaljer: få skyer
NZSP 032350Z 08009KT 1600 BLSN FEW000 M61/ A2820 RMK BLSN FEW000 CLN AIR 00000KT ALL WNDS GRID
 

Script utviklet av  Saratoga-weather.org Tilrettelagt for malen av  Weerstation Leuven

Utstyr vi bruker:

Værstsjon
Davis VP2+ 24/H Fars, Online-Ups, 4G Backup.

Værprogram
Weather Display

Ekstra utstyr
Custom builds pcs

Provider
Hosted By Pro Isp

Davis VP2+ 24/H Fars, Online-Ups, 4G Backup.

Weather Display

Custom builds pcs

Hosted By Pro Isp